Thomaston, Georgia
Current Conditions -  °F | °C
As of 4:15 AM on Monday 24 Nov 2014 (Local Time) from KOPN Reporting Station
Overcast Overcast  
Wind Chill: 66°   Ceiling: 1100
Heat Index: 66°   Visibility: 10mi
Dew Point: 63°   Wind: 12mph
Humidity: 88%   Direction: 250°WSW
Pressure: 29.79"   Gusts: 17mph
Location:  32.9°N, 84.33°W
Report Text: KOPN 240915Z AUTO 25010G15KT 10SM OVC011 19/17 A2979 RMK AO2
Loading
Personal Weather Stations






























Interactive Weather Map New forecast layout! Learn more

10-Day Weather Forecast

Advertisements
Track Severe Weather on mobile